Time;durP1;ratioP1;P1;durP2;ratioP2;P2;SDS_P1;SDS_P2;PMS_P1;PMS_P2;Temp;Humidity;BMP_temperature;BMP_pressure;BME280_temperature;BME280_humidity;BME280_pressure;Samples;Min_cycle;Max_cycle;Signal;HPM_P1;HPM_P2
2022/01/25 00:16:03;;;;;;;16.97;9.43;;;;;;;;;;5047992;28;20229;-81
2022/01/25 00:26:39;;;;;;;16.27;8.50;;;;;;;;;;5047961;28;20249;-82
2022/01/25 00:29:09;;;;;;;16.03;9.67;;;;;;;;;;5048131;28;20227;-82
2022/01/25 00:31:37;;;;;;;11.83;9.07;;;;;;;;;;5048640;28;20220;-83
2022/01/25 00:34:06;;;;;;;12.00;9.30;;;;;;;;;;5047417;28;20229;-82
2022/01/25 00:36:33;;;;;;;11.03;8.67;;;;;;;;;;5047148;28;20289;-81
2022/01/25 00:39:01;;;;;;;15.57;9.50;;;;;;;;;;5048310;28;20297;-83
2022/01/25 00:41:28;;;;;;;10.97;8.40;;;;;;;;;;5048134;28;20206;-82
2022/01/25 00:43:59;;;;;;;13.20;8.90;;;;;;;;;;5045751;28;20224;-82
2022/01/25 00:46:26;;;;;;;12.93;8.57;;;;;;;;;;5039881;28;20288;-82
2022/01/25 00:48:56;;;;;;;12.03;9.27;;;;;;;;;;5039194;28;20239;-82
2022/01/25 00:51:57;;;;;;;14.37;9.33;;;;;;;;;;5039835;28;20222;-82
2022/01/25 00:54:29;;;;;;;14.47;8.87;;;;;;;;;;5038921;28;20322;-82
2022/01/25 00:56:57;;;;;;;12.17;8.87;;;;;;;;;;5037268;28;20528;-83
2022/01/25 00:59:25;;;;;;;12.50;9.63;;;;;;;;;;5049884;28;20219;-83
2022/01/25 01:01:53;;;;;;;12.50;9.23;;;;;;;;;;5049666;28;20208;-82
2022/01/25 01:04:21;;;;;;;15.67;9.43;;;;;;;;;;5046601;28;20200;-82
2022/01/25 01:06:49;;;;;;;10.13;8.17;;;;;;;;;;5049248;28;20203;-82
2022/01/25 01:09:18;;;;;;;11.60;9.33;;;;;;;;;;5049560;28;20228;-84
2022/01/25 01:11:51;;;;;;;13.20;8.20;;;;;;;;;;5044666;28;20212;-81
2022/01/25 01:14:25;;;;;;;12.90;9.00;;;;;;;;;;5049860;28;20267;-82
2022/01/25 01:17:19;;;;;;;15.93;8.93;;;;;;;;;;5057590;28;20268;-82
2022/01/25 01:31:07;;;;;;;11.37;8.97;;;;;;;;;;5029074;28;20206;-81
2022/01/25 01:42:00;;;;;;;14.37;8.90;;;;;;;;;;5047253;28;20199;-82
2022/01/25 01:44:28;;;;;;;13.50;9.13;;;;;;;;;;5047453;28;20301;-83
2022/01/25 01:47:07;;;;;;;13.67;9.13;;;;;;;;;;5047421;28;20207;-83
2022/01/25 01:49:40;;;;;;;12.80;8.50;;;;;;;;;;5054788;28;20194;-83
2022/01/25 01:52:07;;;;;;;12.87;8.93;;;;;;;;;;5056627;28;20250;-82
2022/01/25 01:54:36;;;;;;;15.13;9.43;;;;;;;;;;5056875;28;20190;-82
2022/01/25 01:57:03;;;;;;;11.83;8.70;;;;;;;;;;5056960;28;20223;-83
2022/01/25 01:59:30;;;;;;;12.30;9.40;;;;;;;;;;5056757;28;20225;-82
2022/01/25 02:01:57;;;;;;;15.63;9.27;;;;;;;;;;5054370;28;20187;-82
2022/01/25 02:04:24;;;;;;;12.77;9.00;;;;;;;;;;5048951;28;20194;-82
2022/01/25 02:06:51;;;;;;;14.63;8.67;;;;;;;;;;5059507;28;20214;-82
2022/01/25 02:09:18;;;;;;;15.27;9.60;;;;;;;;;;5045096;28;20201;-82
2022/01/25 02:11:47;;;;;;;18.30;8.97;;;;;;;;;;5027073;28;20208;-82
2022/01/25 02:14:16;;;;;;;13.33;9.57;;;;;;;;;;5025514;28;20284;-82
2022/01/25 02:16:59;;;;;;;13.17;9.67;;;;;;;;;;5024826;28;20223;-82
2022/01/25 02:22:29;;;;;;;13.47;9.30;;;;;;;;;;5026256;28;20238;-82
2022/01/25 02:24:56;;;;;;;13.00;9.23;;;;;;;;;;5025977;28;20231;-82
2022/01/25 02:27:23;;;;;;;12.90;9.47;;;;;;;;;;5024935;28;20234;-82
2022/01/25 02:29:50;;;;;;;12.33;9.03;;;;;;;;;;5025227;28;20209;-82
2022/01/25 02:32:17;;;;;;;14.43;9.50;;;;;;;;;;5026415;28;20244;-82
2022/01/25 02:34:44;;;;;;;11.80;9.10;;;;;;;;;;5025700;28;20228;-82
2022/01/25 02:37:14;;;;;;;10.63;8.57;;;;;;;;;;5024252;28;20236;-82
2022/01/25 02:39:43;;;;;;;12.30;8.50;;;;;;;;;;5023387;28;20314;-82
2022/01/25 02:42:11;;;;;;;12.80;8.67;;;;;;;;;;5027727;28;20680;-82
2022/01/25 02:44:38;;;;;;;12.87;9.03;;;;;;;;;;5029899;28;20286;-82
2022/01/25 02:49:51;;;;;;;11.33;9.00;;;;;;;;;;5023892;28;20206;-82
2022/01/25 02:52:20;;;;;;;11.43;8.80;;;;;;;;;;5021938;28;20235;-82
2022/01/25 02:54:47;;;;;;;14.27;8.90;;;;;;;;;;5023037;28;20419;-82
2022/01/25 02:57:15;;;;;;;16.00;9.10;;;;;;;;;;5021892;28;20609;-82
2022/01/25 02:59:42;;;;;;;12.80;8.33;;;;;;;;;;5030871;28;20211;-82
2022/01/25 03:02:09;;;;;;;12.53;8.37;;;;;;;;;;5021855;28;20231;-82
2022/01/25 03:04:36;;;;;;;12.80;8.93;;;;;;;;;;5022431;28;20211;-82
2022/01/25 03:07:03;;;;;;;11.10;7.93;;;;;;;;;;5023736;28;20237;-82
2022/01/25 03:09:31;;;;;;;12.53;8.87;;;;;;;;;;5025596;28;20219;-82
2022/01/25 03:12:01;;;;;;;11.83;8.97;;;;;;;;;;5024109;28;20608;-82
2022/01/25 03:14:32;;;;;;;10.50;8.10;;;;;;;;;;5024882;28;20664;-82
2022/01/25 03:17:08;;;;;;;13.73;8.77;;;;;;;;;;5024134;28;20239;-82
2022/01/25 03:19:51;;;;;;;9.43;8.13;;;;;;;;;;5023867;28;20229;-82
2022/01/25 03:22:31;;;;;;;14.63;8.23;;;;;;;;;;5024215;28;20637;-82
2022/01/25 03:25:00;;;;;;;12.80;8.40;;;;;;;;;;5023539;28;20304;-82
2022/01/25 03:27:27;;;;;;;10.47;8.77;;;;;;;;;;5026399;28;20238;-82
2022/01/25 03:29:54;;;;;;;15.10;10.03;;;;;;;;;;5035412;28;20192;-82
2022/01/25 03:32:21;;;;;;;12.17;9.00;;;;;;;;;;5024376;28;20211;-82
2022/01/25 03:34:48;;;;;;;14.37;8.47;;;;;;;;;;5035595;28;20211;-82
2022/01/25 03:37:16;;;;;;;12.97;8.17;;;;;;;;;;5035785;28;20279;-82
2022/01/25 03:39:43;;;;;;;15.53;9.00;;;;;;;;;;5035692;28;20219;-82
2022/01/25 03:42:14;;;;;;;11.80;8.63;;;;;;;;;;5035721;28;20251;-83
2022/01/25 03:44:42;;;;;;;13.27;8.97;;;;;;;;;;5036022;28;20184;-83
2022/01/25 03:47:13;;;;;;;13.80;9.20;;;;;;;;;;5035824;28;20235;-83
2022/01/25 03:49:50;;;;;;;14.67;9.23;;;;;;;;;;5036031;28;20195;-83
2022/01/25 03:52:19;;;;;;;14.13;9.50;;;;;;;;;;5035610;28;20265;-83
2022/01/25 03:54:48;;;;;;;14.20;8.57;;;;;;;;;;5035694;28;20211;-83
2022/01/25 03:57:16;;;;;;;15.83;8.93;;;;;;;;;;5035392;28;20227;-82
2022/01/25 03:59:43;;;;;;;12.30;9.10;;;;;;;;;;5035913;28;20238;-83
2022/01/25 04:02:11;;;;;;;13.37;8.93;;;;;;;;;;5035606;28;20228;-83
2022/01/25 04:04:38;;;;;;;14.83;9.00;;;;;;;;;;5035260;28;20270;-83
2022/01/25 04:07:09;;;;;;;16.13;8.67;;;;;;;;;;5035840;28;20215;-82
2022/01/25 04:09:36;;;;;;;9.77;8.23;;;;;;;;;;5037106;28;20259;-82
2022/01/25 04:12:03;;;;;;;11.43;8.93;;;;;;;;;;5038722;28;20223;-83
2022/01/25 04:14:32;;;;;;;10.13;8.33;;;;;;;;;;5039176;28;20217;-83
2022/01/25 04:17:02;;;;;;;11.23;9.27;;;;;;;;;;5039361;28;20231;-82
2022/01/25 04:19:35;;;;;;;10.70;8.70;;;;;;;;;;5038950;28;20230;-82
2022/01/25 04:27:38;;;;;;;13.00;7.97;;;;;;;;;;5014383;28;20250;-83
2022/01/25 04:30:07;;;;;;;14.43;9.00;;;;;;;;;;5038968;28;20207;-83
2022/01/25 04:32:42;;;;;;;14.77;8.73;;;;;;;;;;5038219;28;20235;-83
2022/01/25 04:35:14;;;;;;;10.23;7.90;;;;;;;;;;5038744;28;20298;-84
2022/01/25 04:49:00;;;;;;;12.30;9.73;;;;;;;;;;5035248;28;20235;-83
2022/01/25 04:54:19;;;;;;;11.90;8.47;;;;;;;;;;5038466;28;20250;-83
2022/01/25 04:56:53;;;;;;;12.53;8.13;;;;;;;;;;5037686;28;20278;-83
2022/01/25 04:59:26;;;;;;;14.63;9.17;;;;;;;;;;5048157;28;20241;-83
2022/01/25 05:02:01;;;;;;;10.07;8.33;;;;;;;;;;5058925;28;20198;-83
2022/01/25 05:04:32;;;;;;;10.47;8.50;;;;;;;;;;5075798;28;20213;-83
2022/01/25 05:07:09;;;;;;;12.97;8.73;;;;;;;;;;5072057;28;20226;-83
2022/01/25 05:09:38;;;;;;;14.30;9.20;;;;;;;;;;5058650;28;20217;-82
2022/01/25 05:12:05;;;;;;;16.93;9.13;;;;;;;;;;5062488;28;20230;-83
2022/01/25 05:14:35;;;;;;;14.10;9.07;;;;;;;;;;5061206;28;20203;-83
2022/01/25 05:17:07;;;;;;;12.23;8.57;;;;;;;;;;5057977;28;20224;-83
2022/01/25 05:22:26;;;;;;;11.53;8.90;;;;;;;;;;5056995;28;20241;-83
2022/01/25 05:24:53;;;;;;;14.57;10.00;;;;;;;;;;5057864;28;20211;-83
2022/01/25 05:27:21;;;;;;;15.43;11.07;;;;;;;;;;5054729;28;20249;-83
2022/01/25 05:29:48;;;;;;;21.97;11.40;;;;;;;;;;5053643;28;20213;-84
2022/01/25 05:32:16;;;;;;;12.53;9.23;;;;;;;;;;5053650;28;20238;-84
2022/01/25 05:34:43;;;;;;;13.50;9.50;;;;;;;;;;5048623;28;20238;-85
2022/01/25 05:37:10;;;;;;;19.47;10.03;;;;;;;;;;5041246;28;20238;-84
2022/01/25 05:39:38;;;;;;;14.60;9.77;;;;;;;;;;5035497;28;20234;-84
2022/01/25 05:42:42;;;;;;;19.20;10.63;;;;;;;;;;5035456;28;20241;-84
2022/01/25 05:45:20;;;;;;;15.47;10.20;;;;;;;;;;5035087;28;20244;-84
2022/01/25 05:47:49;;;;;;;15.93;10.40;;;;;;;;;;5034435;28;20318;-85
2022/01/25 05:50:16;;;;;;;15.63;9.73;;;;;;;;;;5035344;28;20194;-83
2022/01/25 05:52:43;;;;;;;17.33;10.37;;;;;;;;;;5034732;28;20246;-84
2022/01/25 05:55:11;;;;;;;19.63;9.90;;;;;;;;;;5034706;28;20273;-84
2022/01/25 05:57:38;;;;;;;12.73;9.03;;;;;;;;;;5033692;28;20236;-84
2022/01/25 06:00:06;;;;;;;14.13;9.40;;;;;;;;;;5034183;28;20226;-84
2022/01/25 06:02:35;;;;;;;12.67;9.03;;;;;;;;;;5033759;28;20608;-84
2022/01/25 06:05:03;;;;;;;13.17;9.47;;;;;;;;;;5034665;28;20226;-84
2022/01/25 06:07:30;;;;;;;17.77;9.83;;;;;;;;;;5034270;28;20234;-86
2022/01/25 06:09:57;;;;;;;14.20;9.17;;;;;;;;;;5034674;28;20203;-89
2022/01/25 06:12:24;;;;;;;11.83;8.90;;;;;;;;;;5033673;28;20230;-89
2022/01/25 06:14:53;;;;;;;16.50;8.93;;;;;;;;;;5033478;28;20230;-89
2022/01/25 06:17:20;;;;;;;17.87;9.03;;;;;;;;;;5034111;28;20234;-89
2022/01/25 06:19:48;;;;;;;15.07;9.70;;;;;;;;;;5033843;28;20230;-90
2022/01/25 06:22:16;;;;;;;12.30;9.30;;;;;;;;;;5034196;28;20728;-91
2022/01/25 06:24:43;;;;;;;20.50;9.90;;;;;;;;;;5034498;28;20285;-91
2022/01/25 06:27:11;;;;;;;15.90;9.30;;;;;;;;;;5033974;28;20253;-91
2022/01/25 06:29:38;;;;;;;18.10;10.60;;;;;;;;;;5034542;28;20206;-90
2022/01/25 06:32:05;;;;;;;16.33;10.30;;;;;;;;;;5033712;28;20581;-91
2022/01/25 06:34:32;;;;;;;13.23;9.20;;;;;;;;;;5033844;28;20214;-90
2022/01/25 06:36:59;;;;;;;14.93;9.80;;;;;;;;;;5034612;28;20234;-91
2022/01/25 06:39:29;;;;;;;15.70;9.70;;;;;;;;;;5036156;28;20206;-90
2022/01/25 06:41:56;;;;;;;14.60;9.77;;;;;;;;;;5035547;28;20230;-91
2022/01/25 06:44:23;;;;;;;21.00;10.10;;;;;;;;;;5036451;28;20207;-91
2022/01/25 06:46:50;;;;;;;15.37;10.10;;;;;;;;;;5036342;28;20210;-90
2022/01/25 06:49:17;;;;;;;13.87;9.27;;;;;;;;;;5035854;28;20572;-90
2022/01/25 06:51:45;;;;;;;22.70;10.70;;;;;;;;;;5036133;28;20220;-90
2022/01/25 06:54:12;;;;;;;16.33;10.27;;;;;;;;;;5035724;28;20272;-90
2022/01/25 06:56:40;;;;;;;15.07;9.87;;;;;;;;;;5102181;22;20232;-80
2022/01/25 06:59:08;;;;;;;13.20;9.60;;;;;;;;;;5105379;28;20193;-81
2022/01/25 07:01:35;;;;;;;17.77;10.23;;;;;;;;;;5103314;28;20308;-83
2022/01/25 07:04:02;;;;;;;15.43;10.90;;;;;;;;;;5104424;28;20209;-82
2022/01/25 07:06:29;;;;;;;15.13;10.00;;;;;;;;;;5103918;28;20254;-83
2022/01/25 07:08:58;;;;;;;17.07;10.30;;;;;;;;;;5104579;28;20236;-81
2022/01/25 07:11:25;;;;;;;16.07;9.50;;;;;;;;;;5103921;28;20205;-82
2022/01/25 07:13:53;;;;;;;15.53;10.13;;;;;;;;;;5095930;28;20225;-83
2022/01/25 07:16:21;;;;;;;16.83;9.83;;;;;;;;;;5062668;28;20595;-81
2022/01/25 07:18:48;;;;;;;13.80;9.93;;;;;;;;;;5060566;28;20237;-82
2022/01/25 07:21:15;;;;;;;12.87;9.87;;;;;;;;;;5080481;28;20267;-82
2022/01/25 07:23:42;;;;;;;20.17;10.10;;;;;;;;;;5082685;28;20326;-82
2022/01/25 07:26:10;;;;;;;23.63;14.37;;;;;;;;;;5084253;28;20229;-81
2022/01/25 07:28:37;;;;;;;28.70;15.03;;;;;;;;;;5082896;28;20232;-82
2022/01/25 07:31:05;;;;;;;25.43;15.33;;;;;;;;;;5083197;28;20227;-82
2022/01/25 07:33:32;;;;;;;15.87;12.03;;;;;;;;;;5080301;28;20234;-83
2022/01/25 07:36:00;;;;;;;18.00;10.97;;;;;;;;;;5077500;28;20218;-81
2022/01/25 07:38:29;;;;;;;15.57;9.93;;;;;;;;;;5080073;28;20256;-82
2022/01/25 07:40:57;;;;;;;19.33;10.57;;;;;;;;;;5080446;28;20204;-85
2022/01/25 07:43:34;;;;;;;17.57;11.43;;;;;;;;;;5079757;28;20237;-83
2022/01/25 07:46:04;;;;;;;19.47;10.33;;;;;;;;;;5086123;28;20319;-82
2022/01/25 07:48:33;;;;;;;19.47;11.47;;;;;;;;;;5089743;28;20288;-81
2022/01/25 07:51:00;;;;;;;19.30;12.10;;;;;;;;;;5087645;28;20216;-81
2022/01/25 07:53:28;;;;;;;20.13;12.73;;;;;;;;;;5075869;28;20239;-80
2022/01/25 07:55:55;;;;;;;24.83;12.63;;;;;;;;;;5088268;28;20232;-81
2022/01/25 07:58:23;;;;;;;29.27;13.93;;;;;;;;;;5095523;28;20268;-82
2022/01/25 08:00:56;;;;;;;28.93;15.60;;;;;;;;;;5086130;28;20233;-82
2022/01/25 08:03:28;;;;;;;20.93;15.57;;;;;;;;;;5074305;28;20240;-81
2022/01/25 08:05:57;;;;;;;23.80;15.57;;;;;;;;;;5084773;28;20712;-82
2022/01/25 08:08:24;;;;;;;25.27;15.47;;;;;;;;;;5082225;28;20225;-82
2022/01/25 08:10:51;;;;;;;25.57;15.77;;;;;;;;;;5082863;28;20205;-83
2022/01/25 08:13:19;;;;;;;32.97;16.13;;;;;;;;;;5082024;28;20233;-82
2022/01/25 08:15:46;;;;;;;32.07;16.97;;;;;;;;;;5081207;28;20568;-81
2022/01/25 08:18:19;;;;;;;31.33;15.90;;;;;;;;;;5079278;28;20243;-82
2022/01/25 08:20:46;;;;;;;26.80;16.07;;;;;;;;;;5080491;28;20216;-81
2022/01/25 08:23:15;;;;;;;25.90;14.83;;;;;;;;;;5078405;28;20237;-83
2022/01/25 08:25:42;;;;;;;27.90;15.93;;;;;;;;;;5081289;28;20239;-81
2022/01/25 08:28:09;;;;;;;24.13;15.37;;;;;;;;;;5081705;28;20241;-81
2022/01/25 08:30:36;;;;;;;22.37;14.90;;;;;;;;;;5081609;28;20205;-82
2022/01/25 08:33:04;;;;;;;25.90;15.80;;;;;;;;;;5081336;28;20248;-84
2022/01/25 08:35:31;;;;;;;30.00;16.97;;;;;;;;;;5081510;28;20225;-82
2022/01/25 08:37:58;;;;;;;25.47;15.97;;;;;;;;;;5081795;28;20233;-83
2022/01/25 08:40:26;;;;;;;31.60;16.03;;;;;;;;;;5081810;28;20225;-82
2022/01/25 08:42:55;;;;;;;27.27;14.93;;;;;;;;;;5070764;28;20238;-81
2022/01/25 08:45:23;;;;;;;29.33;14.87;;;;;;;;;;5072183;28;20235;-81
2022/01/25 08:47:50;;;;;;;23.87;14.53;;;;;;;;;;5088024;28;20217;-84
2022/01/25 08:50:17;;;;;;;31.77;15.60;;;;;;;;;;5085212;28;20201;-81
2022/01/25 08:52:46;;;;;;;23.93;15.30;;;;;;;;;;5085120;28;20247;-82
2022/01/25 08:55:13;;;;;;;29.20;15.87;;;;;;;;;;5086169;28;20270;-81
2022/01/25 08:57:42;;;;;;;24.43;15.00;;;;;;;;;;5085979;28;20319;-84
2022/01/25 09:00:11;;;;;;;22.73;14.00;;;;;;;;;;5084979;28;20205;-82
2022/01/25 09:02:39;;;;;;;32.10;16.13;;;;;;;;;;5082423;28;20271;-81
2022/01/25 09:05:07;;;;;;;30.37;18.17;;;;;;;;;;5088224;28;20197;-83
2022/01/25 09:07:34;;;;;;;25.50;16.47;;;;;;;;;;5085782;28;20225;-83
2022/01/25 09:10:01;;;;;;;33.23;17.83;;;;;;;;;;5083785;28;20255;-83
2022/01/25 09:12:28;;;;;;;32.03;17.67;;;;;;;;;;5080163;28;20229;-84
2022/01/25 09:14:57;;;;;;;26.97;16.93;;;;;;;;;;5084919;28;20263;-82
2022/01/25 09:17:24;;;;;;;37.33;20.70;;;;;;;;;;5083818;28;20229;-81
2022/01/25 09:19:51;;;;;;;37.27;20.57;;;;;;;;;;5086102;28;20231;-83
2022/01/25 09:22:19;;;;;;;38.73;20.63;;;;;;;;;;5085031;28;20249;-82
2022/01/25 09:24:46;;;;;;;39.63;21.03;;;;;;;;;;5086536;28;20219;-82
2022/01/25 09:27:13;;;;;;;44.97;22.13;;;;;;;;;;5083349;28;20261;-80
2022/01/25 09:29:40;;;;;;;44.23;22.83;;;;;;;;;;5081021;28;20209;-80
2022/01/25 09:32:09;;;;;;;38.37;19.50;;;;;;;;;;5079813;28;20229;-80
2022/01/25 09:34:36;;;;;;;43.77;21.80;;;;;;;;;;5077884;28;20212;-79
2022/01/25 09:37:03;;;;;;;49.43;22.80;;;;;;;;;;5076652;28;20245;-80
2022/01/25 09:39:30;;;;;;;45.00;22.47;;;;;;;;;;5079816;28;20236;-80
2022/01/25 09:42:00;;;;;;;54.90;27.50;;;;;;;;;;5079142;28;20326;-80
2022/01/25 09:44:27;;;;;;;51.67;25.60;;;;;;;;;;5079913;28;20728;-79
2022/01/25 09:46:56;;;;;;;55.97;27.07;;;;;;;;;;5083972;28;20225;-79
2022/01/25 09:49:31;;;;;;;49.33;26.67;;;;;;;;;;5083909;28;20206;-82
2022/01/25 09:52:01;;;;;;;46.17;25.27;;;;;;;;;;5097976;28;20233;-85
2022/01/25 09:54:28;;;;;;;57.93;26.50;;;;;;;;;;5098335;28;20176;-82
2022/01/25 09:56:55;;;;;;;50.93;24.87;;;;;;;;;;5081974;28;20250;-82
2022/01/25 09:59:23;;;;;;;54.90;25.97;;;;;;;;;;5083470;28;20213;-82
2022/01/25 10:01:50;;;;;;;54.40;24.77;;;;;;;;;;5079418;28;20219;-83
2022/01/25 10:04:30;;;;;;;59.73;27.33;;;;;;;;;;5072376;28;20235;-82
2022/01/25 10:06:57;;;;;;;63.40;27.03;;;;;;;;;;5056777;28;20329;-82
2022/01/25 10:09:26;;;;;;;58.90;28.20;;;;;;;;;;5056314;28;20211;-83
2022/01/25 10:11:53;;;;;;;65.50;28.60;;;;;;;;;;5055999;28;20212;-81
2022/01/25 10:14:23;;;;;;;59.43;26.60;;;;;;;;;;5057207;28;20212;-81
2022/01/25 10:16:53;;;;;;;62.37;25.53;;;;;;;;;;5057729;28;20946;-82
2022/01/25 10:19:25;;;;;;;58.73;25.37;;;;;;;;;;5057996;28;20668;-82
2022/01/25 10:21:54;;;;;;;58.33;26.20;;;;;;;;;;5067125;28;20233;-82
2022/01/25 10:24:22;;;;;;;62.43;28.43;;;;;;;;;;5076267;28;20683;-81
2022/01/25 10:26:51;;;;;;;62.27;24.87;;;;;;;;;;5073049;28;20223;-82
2022/01/25 10:29:20;;;;;;;68.83;28.47;;;;;;;;;;5073595;28;20219;-81
2022/01/25 10:31:51;;;;;;;72.67;26.60;;;;;;;;;;5073382;28;20546;-83
2022/01/25 10:34:24;;;;;;;70.07;27.27;;;;;;;;;;5072936;28;20213;-82
2022/01/25 10:36:52;;;;;;;66.13;27.73;;;;;;;;;;5074090;28;20225;-81
2022/01/25 10:39:22;;;;;;;81.20;30.60;;;;;;;;;;5062987;28;20211;-82
2022/01/25 10:41:50;;;;;;;74.27;28.40;;;;;;;;;;5063073;28;20225;-82
2022/01/25 10:44:17;;;;;;;76.80;28.87;;;;;;;;;;5076651;28;20199;-82
2022/01/25 10:46:44;;;;;;;68.73;27.07;;;;;;;;;;5075979;28;20232;-82
2022/01/25 10:49:12;;;;;;;61.57;25.23;;;;;;;;;;5076627;28;20215;-81
2022/01/25 10:51:41;;;;;;;66.47;26.13;;;;;;;;;;5076182;28;20208;-81
2022/01/25 10:54:09;;;;;;;72.33;29.07;;;;;;;;;;5077189;28;20257;-81
2022/01/25 10:56:48;;;;;;;57.93;25.57;;;;;;;;;;5076964;28;20233;-81
2022/01/25 10:59:18;;;;;;;54.13;24.30;;;;;;;;;;5078516;28;20823;-81
2022/01/25 11:01:50;;;;;;;48.53;23.97;;;;;;;;;;5076980;28;20232;-82
2022/01/25 11:04:19;;;;;;;46.27;21.80;;;;;;;;;;5077913;28;20200;-82
2022/01/25 11:06:46;;;;;;;38.67;19.83;;;;;;;;;;5079032;28;20247;-82
2022/01/25 11:09:15;;;;;;;44.73;21.93;;;;;;;;;;5081405;28;20204;-85
2022/01/25 11:11:48;;;;;;;30.30;18.67;;;;;;;;;;5083958;28;20545;-83
2022/01/25 11:17:02;;;;;;;30.33;18.00;;;;;;;;;;5081771;28;20250;-81
2022/01/25 11:19:29;;;;;;;28.87;16.10;;;;;;;;;;5086378;28;20213;-82
2022/01/25 11:21:58;;;;;;;36.10;19.63;;;;;;;;;;5088575;28;20354;-81
2022/01/25 11:24:26;;;;;;;30.73;17.53;;;;;;;;;;5081552;28;20204;-82
2022/01/25 11:26:54;;;;;;;29.20;16.93;;;;;;;;;;5089080;28;20217;-83
2022/01/25 11:29:24;;;;;;;26.13;16.00;;;;;;;;;;5089423;28;20209;-82
2022/01/25 11:31:54;;;;;;;26.90;15.67;;;;;;;;;;5088396;28;20197;-81
2022/01/25 11:34:26;;;;;;;27.63;15.43;;;;;;;;;;5088888;28;20205;-82
2022/01/25 11:36:54;;;;;;;23.63;16.00;;;;;;;;;;5086717;28;20765;-82
2022/01/25 11:39:23;;;;;;;26.13;16.20;;;;;;;;;;5085053;28;20217;-82
2022/01/25 11:41:51;;;;;;;23.90;15.10;;;;;;;;;;5083577;28;20221;-83
2022/01/25 11:44:21;;;;;;;23.07;15.43;;;;;;;;;;5082317;28;20208;-82
2022/01/25 11:46:51;;;;;;;23.57;14.07;;;;;;;;;;5079342;28;20705;-83
2022/01/25 11:49:22;;;;;;;24.37;14.80;;;;;;;;;;5080753;28;20657;-82
2022/01/25 11:52:06;;;;;;;28.60;16.30;;;;;;;;;;5082051;28;20579;-81
2022/01/25 11:54:37;;;;;;;25.63;15.30;;;;;;;;;;5085203;28;20212;-83
2022/01/25 11:57:11;;;;;;;30.10;16.43;;;;;;;;;;5079785;28;20234;-84
2022/01/25 11:59:38;;;;;;;25.60;16.23;;;;;;;;;;5081399;28;20220;-82
2022/01/25 12:02:07;;;;;;;27.10;15.53;;;;;;;;;;5086227;28;20251;-83
2022/01/25 12:04:34;;;;;;;26.90;15.13;;;;;;;;;;5086775;28;20220;-83
2022/01/25 12:07:13;;;;;;;36.60;16.90;;;;;;;;;;5086573;28;20716;-83
2022/01/25 12:09:45;;;;;;;24.87;14.83;;;;;;;;;;5086633;28;20351;-84
2022/01/25 12:12:17;;;;;;;27.90;15.87;;;;;;;;;;5085319;28;20237;-82
2022/01/25 12:14:48;;;;;;;28.67;17.27;;;;;;;;;;5086211;28;20266;-86
2022/01/25 12:17:25;;;;;;;25.67;15.60;;;;;;;;;;5086387;28;20271;-83
2022/01/25 12:19:54;;;;;;;31.37;17.13;;;;;;;;;;5085431;28;20200;-83
2022/01/25 12:22:38;;;;;;;28.70;16.70;;;;;;;;;;5085880;28;20229;-82
2022/01/25 12:25:14;;;;;;;30.47;17.47;;;;;;;;;;5085265;28;20209;-82
2022/01/25 12:27:45;;;;;;;34.10;17.60;;;;;;;;;;5086929;28;20240;-84
2022/01/25 12:30:13;;;;;;;32.47;17.87;;;;;;;;;;5089427;28;20212;-83
2022/01/25 12:32:51;;;;;;;31.10;16.67;;;;;;;;;;5086590;28;20236;-83
2022/01/25 12:35:19;;;;;;;39.97;20.90;;;;;;;;;;5087012;28;20740;-82
2022/01/25 12:37:57;;;;;;;28.67;16.07;;;;;;;;;;5084189;28;20233;-82
2022/01/25 12:40:29;;;;;;;27.80;15.87;;;;;;;;;;5084966;28;20511;-82
2022/01/25 12:42:58;;;;;;;28.63;15.40;;;;;;;;;;5085158;28;20245;-83
2022/01/25 12:45:26;;;;;;;32.33;16.50;;;;;;;;;;5085631;28;20720;-83
2022/01/25 12:47:56;;;;;;;33.63;16.53;;;;;;;;;;5086786;28;20235;-83
2022/01/25 12:50:23;;;;;;;30.80;16.93;;;;;;;;;;5081125;28;20210;-84
2022/01/25 12:52:50;;;;;;;32.47;18.00;;;;;;;;;;5072978;28;20225;-83
2022/01/25 12:57:57;;;;;;;36.03;17.47;;;;;;;;;;5077941;28;20316;-81
2022/01/25 13:00:29;;;;;;;33.23;16.70;;;;;;;;;;5075745;28;20205;-81
2022/01/25 13:05:51;;;;;;;34.03;18.33;;;;;;;;;;5087020;28;20568;-81
2022/01/25 13:08:23;;;;;;;28.90;15.43;;;;;;;;;;5049947;28;20226;-81
2022/01/25 13:10:51;;;;;;;33.70;16.57;;;;;;;;;;5051058;28;20205;-81
2022/01/25 13:13:31;;;;;;;27.97;14.63;;;;;;;;;;5052816;28;20247;-81
2022/01/25 13:15:59;;;;;;;35.57;17.80;;;;;;;;;;5052543;28;20236;-81
2022/01/25 13:18:31;;;;;;;31.87;16.10;;;;;;;;;;5052556;28;20242;-81
2022/01/25 13:21:08;;;;;;;34.90;18.80;;;;;;;;;;5053051;28;20206;-81
2022/01/25 13:23:36;;;;;;;35.20;17.63;;;;;;;;;;5052813;28;20230;-80
2022/01/25 13:26:12;;;;;;;37.30;16.43;;;;;;;;;;5052986;28;20878;-80
2022/01/25 13:28:53;;;;;;;34.40;17.97;;;;;;;;;;5052427;28;20261;-81
2022/01/25 13:31:22;;;;;;;33.20;16.90;;;;;;;;;;5052868;28;20202;-81
2022/01/25 13:33:49;;;;;;;34.80;17.53;;;;;;;;;;5036533;28;20231;-81
2022/01/25 13:36:20;;;;;;;33.67;16.70;;;;;;;;;;5053143;28;20261;-81
2022/01/25 13:38:48;;;;;;;26.77;15.27;;;;;;;;;;5052354;28;20320;-81
2022/01/25 13:41:20;;;;;;;40.10;17.20;;;;;;;;;;5052259;28;20273;-81
2022/01/25 13:46:34;;;;;;;34.60;16.80;;;;;;;;;;5052279;28;20293;-81
2022/01/25 13:49:02;;;;;;;34.30;16.37;;;;;;;;;;5051055;28;20229;-81
2022/01/25 13:51:32;;;;;;;35.50;14.73;;;;;;;;;;5052008;28;20210;-81
2022/01/25 13:53:59;;;;;;;36.53;17.07;;;;;;;;;;5051290;28;20696;-81
2022/01/25 13:56:28;;;;;;;35.07;16.73;;;;;;;;;;5052132;28;20226;-81
2022/01/25 13:58:55;;;;;;;25.77;12.80;;;;;;;;;;5032311;28;20242;-81
2022/01/25 14:01:23;;;;;;;36.27;16.67;;;;;;;;;;5032075;28;20214;-82
2022/01/25 14:03:54;;;;;;;32.83;15.30;;;;;;;;;;5031328;28;20242;-81
2022/01/25 14:06:22;;;;;;;33.73;16.97;;;;;;;;;;5031828;28;20714;-82
2022/01/25 14:08:52;;;;;;;29.47;16.40;;;;;;;;;;5031929;28;20239;-82
2022/01/25 14:11:25;;;;;;;33.80;16.80;;;;;;;;;;5032392;28;20233;-82
2022/01/25 14:22:42;;;;;;;35.10;16.83;;;;;;;;;;5017104;28;20238;-81
2022/01/25 14:25:11;;;;;;;34.23;16.07;;;;;;;;;;5017640;28;20361;-82
2022/01/25 14:27:49;;;;;;;32.83;15.27;;;;;;;;;;5017811;28;20235;-82
2022/01/25 14:30:16;;;;;;;40.30;18.73;;;;;;;;;;5019098;28;20214;-82
2022/01/25 14:32:44;;;;;;;34.30;15.20;;;;;;;;;;5016673;28;20562;-82
2022/01/25 14:35:13;;;;;;;34.13;16.73;;;;;;;;;;5017352;28;20211;-82
2022/01/25 14:37:42;;;;;;;30.57;14.20;;;;;;;;;;5017210;28;20238;-82
2022/01/25 14:40:12;;;;;;;36.03;17.10;;;;;;;;;;5016334;28;20210;-81
2022/01/25 14:42:39;;;;;;;35.77;17.27;;;;;;;;;;5030289;28;20237;-81
2022/01/25 14:45:08;;;;;;;31.10;16.23;;;;;;;;;;5036627;28;20222;-81
2022/01/25 14:47:38;;;;;;;30.60;15.53;;;;;;;;;;5026474;28;20246;-82
2022/01/25 14:50:07;;;;;;;33.07;15.47;;;;;;;;;;5016552;28;20305;-81
2022/01/25 14:52:34;;;;;;;30.30;13.90;;;;;;;;;;5023578;28;20758;-81
2022/01/25 14:55:02;;;;;;;32.77;15.37;;;;;;;;;;5036011;28;20211;-81
2022/01/25 14:57:40;;;;;;;32.97;16.17;;;;;;;;;;5035565;28;20702;-81
2022/01/25 15:00:08;;;;;;;32.13;14.70;;;;;;;;;;5036306;28;20269;-81
2022/01/25 15:02:35;;;;;;;32.90;14.90;;;;;;;;;;5038692;28;20234;-81
2022/01/25 15:05:03;;;;;;;27.90;14.37;;;;;;;;;;5030377;28;20238;-81
2022/01/25 15:07:33;;;;;;;32.83;15.10;;;;;;;;;;5031488;28;20265;-81
2022/01/25 15:10:03;;;;;;;31.87;16.40;;;;;;;;;;5038115;28;20203;-81
2022/01/25 15:12:36;;;;;;;29.10;14.43;;;;;;;;;;5028337;28;20231;-81
2022/01/25 15:15:09;;;;;;;35.03;16.03;;;;;;;;;;5047452;28;20199;-82
2022/01/25 15:17:36;;;;;;;28.33;14.80;;;;;;;;;;5056622;28;20234;-81
2022/01/25 15:20:04;;;;;;;30.50;14.70;;;;;;;;;;5056928;28;20206;-82
2022/01/25 15:22:31;;;;;;;29.57;13.93;;;;;;;;;;5055648;28;20759;-82
2022/01/25 15:24:59;;;;;;;30.20;15.03;;;;;;;;;;5045608;28;20298;-83
2022/01/25 15:27:28;;;;;;;32.93;16.80;;;;;;;;;;5036613;28;20265;-83
2022/01/25 15:29:59;;;;;;;26.43;14.87;;;;;;;;;;5046698;28;20573;-83
2022/01/25 15:32:26;;;;;;;24.53;13.07;;;;;;;;;;5043162;28;20249;-83
2022/01/25 15:34:53;;;;;;;20.83;11.70;;;;;;;;;;5037515;28;20203;-83
2022/01/25 15:37:21;;;;;;;33.47;15.13;;;;;;;;;;5038533;28;20325;-83
2022/01/25 15:39:48;;;;;;;27.53;13.73;;;;;;;;;;5039100;28;20203;-83
2022/01/25 15:42:18;;;;;;;28.33;14.07;;;;;;;;;;5037784;28;20595;-83
2022/01/25 15:44:46;;;;;;;28.37;14.50;;;;;;;;;;5023554;28;20223;-83
2022/01/25 15:47:16;;;;;;;28.10;14.17;;;;;;;;;;5037259;28;20341;-83
2022/01/25 15:49:44;;;;;;;32.83;16.00;;;;;;;;;;5037984;28;20210;-83
2022/01/25 15:52:11;;;;;;;29.70;14.77;;;;;;;;;;5037972;28;20230;-83
2022/01/25 15:54:39;;;;;;;26.20;14.67;;;;;;;;;;5036499;28;20195;-83
2022/01/25 15:57:06;;;;;;;27.60;14.50;;;;;;;;;;5038300;28;20241;-82
2022/01/25 15:59:33;;;;;;;26.20;15.40;;;;;;;;;;5036976;28;20230;-82
2022/01/25 16:02:09;;;;;;;30.63;15.37;;;;;;;;;;5033454;28;20238;-82
2022/01/25 16:04:41;;;;;;;31.17;14.40;;;;;;;;;;5043971;28;20235;-83